createdAt,value
2019-02-23T00:00:12.592Z,1.13
2019-02-23T00:02:40.778Z,1.50
2019-02-23T00:05:09.714Z,1.40
2019-02-23T00:08:00.297Z,3.43
2019-02-23T00:10:29.172Z,1.40
2019-02-23T00:12:57.909Z,2.53
2019-02-23T00:15:26.956Z,1.70
2019-02-23T00:17:55.908Z,1.93
2019-02-23T00:20:24.756Z,3.47
2019-02-23T00:22:53.758Z,2.80
2019-02-23T00:25:22.788Z,1.50
2019-02-23T00:27:54.513Z,1.60
2019-02-23T00:30:23.470Z,2.27
2019-02-23T00:32:52.287Z,1.53
2019-02-23T00:35:21.522Z,4.07
2019-02-23T00:37:52.593Z,2.40
2019-02-23T00:40:24.371Z,2.47
2019-02-23T00:42:53.274Z,2.53
2019-02-23T00:45:22.184Z,2.93
2019-02-23T00:47:51.513Z,3.40
2019-02-23T00:50:20.709Z,3.70
2019-02-23T00:52:51.123Z,3.40
2019-02-23T00:55:20.593Z,2.63
2019-02-23T00:58:08.833Z,2.30
2019-02-23T01:00:37.966Z,2.07
2019-02-23T01:03:06.792Z,2.43
2019-02-23T01:05:36.206Z,5.63
2019-02-23T01:08:05.290Z,3.00
2019-02-23T01:10:34.210Z,3.03
2019-02-23T01:13:03.109Z,2.57
2019-02-23T01:15:32.301Z,1.47
2019-02-23T01:18:01.122Z,4.07
2019-02-23T01:20:30.282Z,5.20
2019-02-23T01:22:59.495Z,2.93
2019-02-23T01:25:28.293Z,1.97
2019-02-23T01:27:57.200Z,3.70
2019-02-23T01:30:26.316Z,2.73
2019-02-23T01:32:55.321Z,3.63
2019-02-23T01:35:24.344Z,2.57
2019-02-23T01:37:54.356Z,6.17
2019-02-23T01:40:23.475Z,2.07
2019-02-23T01:42:52.272Z,3.13
2019-02-23T01:45:21.590Z,4.93
2019-02-23T01:47:51.127Z,2.70
2019-02-23T01:50:20.630Z,3.80
2019-02-23T01:52:51.202Z,3.80
2019-02-23T01:55:20.114Z,3.03
2019-02-23T01:57:52.044Z,2.70
2019-02-23T02:00:21.412Z,2.87
2019-02-23T02:02:50.513Z,7.67
2019-02-23T02:05:21.101Z,3.03
2019-02-23T02:07:50.094Z,4.57
2019-02-23T02:10:19.615Z,2.90
2019-02-23T02:12:48.810Z,4.40
2019-02-23T02:15:17.535Z,5.90
2019-02-23T02:17:47.007Z,9.03
2019-02-23T02:20:22.369Z,3.60
2019-02-23T02:22:51.452Z,4.50
2019-02-23T02:25:20.637Z,5.73
2019-02-23T02:27:49.973Z,4.83
2019-02-23T02:30:19.298Z,3.90
2019-02-23T02:32:48.044Z,3.60
2019-02-23T02:35:17.557Z,5.33
2019-02-23T02:37:46.381Z,4.77
2019-02-23T02:40:15.415Z,5.13
2019-02-23T02:42:44.343Z,4.93
2019-02-23T02:45:13.092Z,4.73
2019-02-23T02:47:42.146Z,3.00
2019-02-23T02:50:31.950Z,4.20
2019-02-23T02:53:06.110Z,4.77
2019-02-23T02:55:35.340Z,3.67
2019-02-23T02:58:04.326Z,4.33
2019-02-23T03:00:33.118Z,3.90
2019-02-23T03:03:02.229Z,2.27
2019-02-23T03:05:31.209Z,4.50
2019-02-23T03:08:00.192Z,4.03
2019-02-23T03:10:29.143Z,5.30
2019-02-23T03:12:57.871Z,6.53
2019-02-23T03:15:26.891Z,5.30
2019-02-23T03:17:55.934Z,7.57
2019-02-23T03:20:35.964Z,6.33
2019-02-23T03:22:55.348Z,5.47
2019-02-23T03:25:24.395Z,6.33
2019-02-23T03:27:53.207Z,5.70
2019-02-23T03:30:22.193Z,5.33
2019-02-23T03:32:54.097Z,3.70
2019-02-23T03:35:42.211Z,4.97
2019-02-23T03:38:11.322Z,9.07
2019-02-23T03:40:40.476Z,5.27
2019-02-23T03:43:09.427Z,5.63
2019-02-23T03:45:38.412Z,4.20
2019-02-23T03:48:07.377Z,3.97
2019-02-23T03:50:36.057Z,7.10
2019-02-23T03:53:05.050Z,6.77
2019-02-23T03:55:34.043Z,7.67
2019-02-23T03:58:02.956Z,7.23
2019-02-23T04:00:32.115Z,7.17
2019-02-23T04:03:01.003Z,7.73
2019-02-23T04:05:30.262Z,6.53
2019-02-23T04:07:59.314Z,9.70
2019-02-23T04:10:28.213Z,6.77
2019-02-23T04:12:57.084Z,8.87
2019-02-23T04:15:26.622Z,4.67
2019-02-23T04:17:55.411Z,5.90
2019-02-23T04:20:24.234Z,5.00
2019-02-23T04:22:53.135Z,7.30
2019-02-23T04:25:21.914Z,7.13
2019-02-23T04:27:51.219Z,11.60
2019-02-23T04:30:23.027Z,6.07
2019-02-23T04:32:51.847Z,7.70
2019-02-23T04:35:20.752Z,10.10
2019-02-23T04:37:50.137Z,6.33
2019-02-23T04:40:19.833Z,5.90
2019-02-23T04:42:48.697Z,8.07
2019-02-23T04:45:22.108Z,8.30
2019-02-23T04:47:51.044Z,10.57
2019-02-23T04:50:20.310Z,9.13
2019-02-23T04:52:49.694Z,7.50
2019-02-23T04:55:19.051Z,7.37
2019-02-23T04:57:48.314Z,9.70
2019-02-23T05:00:17.149Z,5.87
2019-02-23T05:02:45.969Z,6.63
2019-02-23T05:05:17.335Z,9.40
2019-02-23T05:07:45.814Z,5.63
2019-02-23T05:10:14.604Z,10.20
2019-02-23T05:12:43.570Z,7.73
2019-02-23T05:15:14.215Z,10.53
2019-02-23T05:17:43.031Z,8.97
2019-02-23T05:20:12.062Z,7.47
2019-02-23T05:22:40.845Z,12.20
2019-02-23T05:25:10.236Z,9.93
2019-02-23T05:27:39.265Z,9.60
2019-02-23T05:30:10.913Z,8.60
2019-02-23T05:32:39.725Z,9.50
2019-02-23T05:35:11.657Z,12.50
2019-02-23T05:37:40.653Z,10.03
2019-02-23T05:40:12.488Z,8.83
2019-02-23T05:42:41.325Z,7.90
2019-02-23T05:45:12.035Z,7.30
2019-02-23T05:47:40.853Z,9.50
2019-02-23T05:50:10.136Z,10.13
2019-02-23T05:52:38.886Z,7.77
2019-02-23T05:55:07.854Z,7.60
2019-02-23T05:57:37.159Z,9.50
2019-02-23T06:00:09.130Z,11.23
2019-02-23T06:02:38.115Z,9.97
2019-02-23T06:05:07.639Z,5.87
2019-02-23T06:07:36.566Z,7.73
2019-02-23T06:10:08.210Z,7.40
2019-02-23T06:12:37.236Z,5.40
2019-02-23T06:15:09.844Z,7.97
2019-02-23T06:17:38.756Z,12.90
2019-02-23T06:20:09.147Z,6.90
2019-02-23T06:22:41.384Z,8.17
2019-02-23T06:25:10.421Z,8.20
2019-02-23T06:27:42.152Z,10.33
2019-02-23T06:30:13.963Z,7.97
2019-02-23T06:32:42.962Z,10.43
2019-02-23T06:35:12.127Z,6.87
2019-02-23T06:37:42.968Z,12.00
2019-02-23T06:40:12.285Z,9.37
2019-02-23T06:42:41.011Z,9.80
2019-02-23T06:45:13.760Z,11.90
2019-02-23T06:47:42.691Z,5.60
2019-02-23T06:50:11.501Z,7.63
2019-02-23T06:52:40.642Z,8.67
2019-02-23T06:55:09.571Z,10.13
2019-02-23T06:57:38.461Z,8.17
2019-02-23T07:00:15.783Z,11.30
2019-02-23T07:02:44.744Z,8.37
2019-02-23T07:05:13.603Z,7.97
2019-02-23T07:07:42.802Z,7.33
2019-02-23T07:10:13.283Z,7.07
2019-02-23T07:12:43.301Z,8.50
2019-02-23T07:15:12.249Z,5.80
2019-02-23T07:17:41.217Z,11.40
2019-02-23T07:20:10.851Z,7.27
2019-02-23T07:22:39.699Z,8.93
2019-02-23T07:25:09.886Z,9.67
2019-02-23T07:27:38.753Z,11.77
2019-02-23T07:30:12.757Z,8.00
2019-02-23T07:32:41.745Z,8.67
2019-02-23T07:35:10.623Z,11.97
2019-02-23T07:37:39.743Z,8.83
2019-02-23T07:40:11.100Z,9.97
2019-02-23T07:42:40.734Z,8.27
2019-02-23T07:45:10.995Z,7.50
2019-02-23T07:47:40.125Z,7.80
2019-02-23T07:50:14.860Z,6.10
2019-02-23T07:52:43.589Z,7.43
2019-02-23T07:55:12.647Z,6.93
2019-02-23T07:57:41.608Z,10.47
2019-02-23T08:00:12.618Z,6.67
2019-02-23T08:02:41.625Z,9.30
2019-02-23T08:05:10.945Z,7.97
2019-02-23T08:07:40.117Z,9.67
2019-02-23T08:10:11.111Z,9.30
2019-02-23T08:12:40.248Z,5.83
2019-02-23T08:15:11.535Z,5.80
2019-02-23T08:17:40.466Z,8.70
2019-02-23T08:20:11.375Z,7.77
2019-02-23T08:22:40.257Z,7.17
2019-02-23T08:25:13.820Z,8.20
2019-02-23T08:27:42.712Z,10.70
2019-02-23T08:30:14.070Z,6.00
2019-02-23T08:32:43.251Z,5.67
2019-02-23T08:35:12.382Z,5.23
2019-02-23T08:37:41.202Z,8.03
2019-02-23T08:40:12.882Z,8.20
2019-02-23T08:42:41.887Z,5.10
2019-02-23T08:45:10.657Z,8.77
2019-02-23T08:47:39.635Z,5.20
2019-02-23T08:50:15.633Z,8.33
2019-02-23T08:52:49.318Z,7.57
2019-02-23T08:55:15.770Z,5.70
2019-02-23T08:57:44.577Z,6.33
2019-02-23T09:00:16.182Z,8.17
2019-02-23T09:02:45.097Z,7.30
2019-02-23T09:05:14.426Z,7.87
2019-02-23T09:07:48.512Z,7.77
2019-02-23T09:10:17.310Z,5.43
2019-02-23T09:12:46.118Z,5.50
2019-02-23T09:15:15.167Z,5.70
2019-02-23T09:17:44.046Z,7.43
2019-02-23T09:20:13.155Z,5.17
2019-02-23T09:22:42.244Z,6.53
2019-02-23T09:25:11.653Z,7.57
2019-02-23T09:27:40.426Z,3.73
2019-02-23T09:30:11.440Z,8.60
2019-02-23T09:32:40.289Z,6.03
2019-02-23T09:35:09.447Z,10.37
2019-02-23T09:37:38.397Z,5.73
2019-02-23T09:40:13.183Z,5.10
2019-02-23T09:42:42.416Z,5.33
2019-02-23T09:45:12.279Z,8.57
2019-02-23T09:47:41.172Z,6.27
2019-02-23T09:50:10.162Z,6.90
2019-02-23T09:52:39.050Z,7.77
2019-02-23T09:55:09.226Z,6.20
2019-02-23T09:57:38.383Z,5.77
2019-02-23T10:00:14.443Z,6.27
2019-02-23T10:02:43.603Z,9.67
2019-02-23T10:05:12.394Z,7.97
2019-02-23T10:07:41.202Z,9.60
2019-02-23T10:10:11.707Z,12.13
2019-02-23T10:12:40.560Z,9.20
2019-02-23T10:15:10.805Z,10.03
2019-02-23T10:17:39.963Z,9.73
2019-02-23T10:20:10.784Z,8.33
2019-02-23T10:22:39.858Z,7.47
2019-02-23T10:25:09.030Z,8.30
2019-02-23T10:27:37.893Z,12.63
2019-02-23T10:30:09.659Z,7.80
2019-02-23T10:32:38.527Z,10.17
2019-02-23T10:35:11.456Z,9.30
2019-02-23T10:37:40.436Z,9.83
2019-02-23T10:40:11.631Z,11.73
2019-02-23T10:42:40.538Z,10.40
2019-02-23T10:45:11.661Z,7.50
2019-02-23T10:47:40.435Z,10.83
2019-02-23T10:50:11.336Z,11.67
2019-02-23T10:52:40.381Z,9.57
2019-02-23T10:55:14.224Z,14.03
2019-02-23T10:57:43.311Z,8.93
2019-02-23T11:00:19.487Z,10.93
2019-02-23T11:02:49.223Z,11.57
2019-02-23T11:05:19.293Z,10.23
2019-02-23T11:07:50.611Z,9.70
2019-02-23T11:10:22.130Z,11.57
2019-02-23T11:12:50.983Z,9.20
2019-02-23T11:15:23.120Z,13.50
2019-02-23T11:17:51.921Z,10.70
2019-02-23T11:20:21.125Z,10.97
2019-02-23T11:22:50.062Z,13.23
2019-02-23T11:25:21.711Z,13.90
2019-02-23T11:27:51.162Z,10.77
2019-02-23T11:30:20.018Z,11.83
2019-02-23T11:32:52.331Z,11.40
2019-02-23T11:35:23.355Z,9.97
2019-02-23T11:37:52.147Z,14.13
2019-02-23T11:40:23.412Z,12.13
2019-02-23T11:42:51.717Z,11.50
2019-02-23T11:45:22.109Z,11.77
2019-02-23T11:47:51.030Z,12.00
2019-02-23T11:50:20.049Z,13.03
2019-02-23T11:52:49.503Z,13.50
2019-02-23T11:55:18.494Z,10.57
2019-02-23T11:57:47.294Z,10.27
2019-02-23T12:00:16.822Z,11.37
2019-02-23T12:02:52.497Z,13.83
2019-02-23T12:05:16.893Z,10.10
2019-02-23T12:07:46.146Z,14.83
2019-02-23T12:10:16.473Z,12.90
2019-02-23T12:12:46.046Z,12.37
2019-02-23T12:15:15.050Z,13.17
2019-02-23T12:17:43.835Z,13.50
2019-02-23T12:20:12.981Z,15.33
2019-02-23T12:22:43.195Z,12.53
2019-02-23T12:25:15.085Z,13.47
2019-02-23T12:28:02.021Z,12.10
2019-02-23T12:30:32.760Z,12.23
2019-02-23T12:33:01.518Z,14.30
2019-02-23T12:35:31.685Z,12.40
2019-02-23T12:38:00.570Z,12.70
2019-02-23T12:40:29.731Z,11.57
2019-02-23T12:42:59.109Z,10.30
2019-02-23T12:45:28.564Z,11.10
2019-02-23T12:48:00.266Z,10.03
2019-02-23T12:50:29.365Z,9.20
2019-02-23T12:52:59.858Z,11.00
2019-02-23T12:55:28.977Z,8.33
2019-02-23T12:57:58.041Z,10.13
2019-02-23T13:00:27.485Z,11.53
2019-02-23T13:02:56.744Z,11.13
2019-02-23T13:05:25.718Z,11.10
2019-02-23T13:07:56.179Z,12.63
2019-02-23T13:10:28.164Z,12.37
2019-02-23T13:13:21.033Z,10.07
2019-02-23T13:16:07.282Z,6.77
2019-02-23T13:19:00.126Z,12.10
2019-02-23T13:21:32.078Z,10.33
2019-02-23T13:24:10.217Z,9.03
2019-02-23T13:26:48.240Z,9.47
2019-02-23T13:29:32.126Z,9.37
2019-02-23T13:32:04.084Z,11.37
2019-02-23T13:35:03.630Z,9.17
2019-02-23T13:37:38.314Z,12.30
2019-02-23T13:40:10.113Z,12.30
2019-02-23T13:42:50.697Z,14.03
2019-02-23T13:45:40.556Z,10.47
2019-02-23T13:48:27.419Z,9.87
2019-02-23T13:51:06.543Z,12.50
2019-02-23T13:54:05.451Z,8.33
2019-02-23T13:56:43.578Z,10.17
2019-02-23T13:59:30.536Z,8.93
2019-02-23T14:02:20.722Z,13.40
2019-02-23T14:05:07.650Z,12.40
2019-02-23T14:07:45.475Z,10.47
2019-02-23T14:10:51.238Z,8.87
2019-02-23T14:13:37.307Z,8.53
2019-02-23T14:16:34.650Z,9.00
2019-02-23T14:19:15.346Z,8.93
2019-02-23T14:21:50.006Z,9.73
2019-02-23T14:24:33.640Z,10.33
2019-02-23T14:27:14.921Z,13.10
2019-02-23T14:30:19.704Z,11.17
2019-02-23T14:33:20.342Z,8.73
2019-02-23T14:35:58.151Z,10.63
2019-02-23T14:38:31.686Z,10.93
2019-02-23T14:41:06.224Z,12.50
2019-02-23T14:43:50.247Z,8.57
2019-02-23T14:46:38.724Z,11.03
2019-02-23T14:49:28.039Z,10.17
2019-02-23T14:52:23.507Z,8.90
2019-02-23T14:55:16.031Z,9.70
2019-02-23T14:58:04.361Z,10.83
2019-02-23T15:00:42.257Z,12.30
2019-02-23T15:03:20.451Z,8.27
2019-02-23T15:06:10.637Z,14.50
2019-02-23T15:08:54.835Z,11.70
2019-02-23T15:11:47.155Z,12.10
2019-02-23T15:14:33.872Z,14.03
2019-02-23T15:17:21.019Z,12.20
2019-02-23T15:19:55.486Z,18.00
2019-02-23T15:22:36.886Z,10.60
2019-02-23T15:25:32.983Z,10.93
2019-02-23T15:28:07.604Z,14.57
2019-02-23T15:30:39.361Z,12.03
2019-02-23T15:33:17.052Z,10.97
2019-02-23T15:35:52.502Z,11.63
2019-02-23T15:38:40.034Z,12.97
2019-02-23T15:41:13.266Z,9.17
2019-02-23T15:43:57.420Z,10.00
2019-02-23T15:46:32.088Z,10.33
2019-02-23T15:49:10.181Z,9.53
2019-02-23T15:51:39.131Z,11.60
2019-02-23T15:54:08.277Z,9.50
2019-02-23T15:56:37.249Z,10.40
2019-02-23T15:59:06.297Z,12.13
2019-02-23T16:01:35.337Z,12.10
2019-02-23T16:04:04.353Z,12.07
2019-02-23T16:06:33.606Z,13.57
2019-02-23T16:09:02.446Z,14.13
2019-02-23T16:11:31.841Z,10.50
2019-02-23T16:14:00.846Z,9.30
2019-02-23T16:16:31.273Z,9.97
2019-02-23T16:19:00.403Z,8.23
2019-02-23T16:21:29.674Z,9.63
2019-02-23T16:23:58.485Z,10.77
2019-02-23T16:26:27.610Z,9.10
2019-02-23T16:28:56.426Z,11.77
2019-02-23T16:31:25.557Z,13.27
2019-02-23T16:33:54.581Z,13.33
2019-02-23T16:36:23.346Z,12.77
2019-02-23T16:38:52.456Z,11.07
2019-02-23T16:41:21.670Z,6.97
2019-02-23T16:43:51.767Z,10.30
2019-02-23T16:46:20.955Z,9.70
2019-02-23T16:48:50.453Z,8.60
2019-02-23T16:51:19.560Z,11.77
2019-02-23T16:53:49.172Z,9.13
2019-02-23T16:56:19.059Z,10.57
2019-02-23T16:58:48.425Z,8.87
2019-02-23T17:01:17.296Z,9.57
2019-02-23T17:03:46.480Z,11.63
2019-02-23T17:06:15.717Z,14.80
2019-02-23T17:08:44.603Z,7.70
2019-02-23T17:11:13.958Z,8.63
2019-02-23T17:13:42.927Z,9.33
2019-02-23T17:16:12.050Z,9.90
2019-02-23T17:18:41.010Z,10.53
2019-02-23T17:21:09.979Z,12.27
2019-02-23T17:23:38.840Z,9.67
2019-02-23T17:26:09.423Z,9.33
2019-02-23T17:28:38.293Z,10.23
2019-02-23T17:31:07.570Z,11.17
2019-02-23T17:33:36.670Z,14.17
2019-02-23T17:36:05.715Z,10.73
2019-02-23T17:38:34.769Z,10.40
2019-02-23T17:41:03.912Z,13.43
2019-02-23T17:43:32.722Z,8.83
2019-02-23T17:46:01.662Z,12.13
2019-02-23T17:51:00.337Z,9.97
2019-02-23T17:53:29.271Z,9.50
2019-02-23T17:55:58.481Z,11.00
2019-02-23T17:58:27.309Z,10.07
2019-02-23T18:00:56.317Z,10.83
2019-02-23T18:03:25.788Z,9.10
2019-02-23T18:05:54.627Z,8.67
2019-02-23T18:08:23.472Z,9.67
2019-02-23T18:10:52.802Z,8.80
2019-02-23T18:13:22.003Z,12.53
2019-02-23T18:15:52.228Z,11.13
2019-02-23T18:18:21.761Z,12.50
2019-02-23T18:20:51.081Z,11.40
2019-02-23T18:23:20.643Z,8.90
2019-02-23T18:25:50.135Z,9.13
2019-02-23T18:28:19.999Z,8.03
2019-02-23T18:30:49.439Z,10.10
2019-02-23T18:33:19.101Z,9.63
2019-02-23T18:35:47.857Z,10.10
2019-02-23T18:38:16.917Z,9.20
2019-02-23T18:40:46.354Z,14.20
2019-02-23T18:43:15.424Z,9.33
2019-02-23T18:45:51.244Z,12.13
2019-02-23T18:48:21.815Z,9.50
2019-02-23T18:50:52.403Z,9.50
2019-02-23T18:53:23.213Z,10.53
2019-02-23T18:55:52.022Z,9.93
2019-02-23T18:58:21.288Z,9.00
2019-02-23T19:00:53.187Z,10.43
2019-02-23T19:03:24.184Z,8.40
2019-02-23T19:05:53.235Z,11.27
2019-02-23T19:08:22.445Z,10.40
2019-02-23T19:10:53.333Z,13.33
2019-02-23T19:13:22.275Z,10.43
2019-02-23T19:15:51.820Z,10.73
2019-02-23T19:18:23.435Z,11.80
2019-02-23T19:20:52.537Z,9.10
2019-02-23T19:23:21.689Z,9.43
2019-02-23T19:25:51.112Z,9.90
2019-02-23T19:28:22.845Z,10.77
2019-02-23T19:30:51.722Z,13.33
2019-02-23T19:33:20.873Z,12.17
2019-02-23T19:35:49.883Z,7.93
2019-02-23T19:38:19.344Z,10.87
2019-02-23T19:40:48.982Z,14.57
2019-02-23T19:43:17.826Z,9.93
2019-02-23T19:45:50.176Z,12.20
2019-02-23T19:48:19.499Z,8.37
2019-02-23T19:50:51.682Z,10.23
2019-02-23T19:53:23.828Z,9.90
2019-02-23T19:55:52.938Z,9.03
2019-02-23T19:58:24.955Z,10.73
2019-02-23T20:00:54.172Z,13.03
2019-02-23T20:03:23.039Z,8.87
2019-02-23T20:05:52.402Z,8.83
2019-02-23T20:08:21.859Z,11.20
2019-02-23T20:10:51.290Z,10.37
2019-02-23T20:13:20.695Z,12.83
2019-02-23T20:15:50.360Z,8.70
2019-02-23T20:18:19.800Z,12.73
2019-02-23T20:20:49.617Z,9.37
2019-02-23T20:23:19.493Z,10.83
2019-02-23T20:25:50.180Z,7.43
2019-02-23T20:28:19.335Z,10.07
2019-02-23T20:30:48.494Z,10.57
2019-02-23T20:33:19.055Z,7.87
2019-02-23T20:35:47.883Z,12.27
2019-02-23T20:38:16.967Z,13.90
2019-02-23T20:40:45.845Z,11.87
2019-02-23T20:43:14.999Z,14.13
2019-02-23T20:45:44.002Z,11.13
2019-02-23T20:48:13.111Z,13.20
2019-02-23T20:50:42.309Z,14.50
2019-02-23T20:53:11.379Z,12.93
2019-02-23T20:55:40.325Z,12.73
2019-02-23T20:58:09.217Z,11.03
2019-02-23T21:00:39.778Z,11.77
2019-02-23T21:03:08.752Z,13.57
2019-02-23T21:05:37.802Z,11.33
2019-02-23T21:08:06.920Z,13.67
2019-02-23T21:10:35.819Z,12.47
2019-02-23T21:13:04.748Z,14.13
2019-02-23T21:15:33.845Z,15.00
2019-02-23T21:18:02.969Z,16.83
2019-02-23T21:20:31.839Z,19.47
2019-02-23T21:23:01.076Z,15.07
2019-02-23T21:25:31.382Z,15.53
2019-02-23T21:28:00.299Z,12.70
2019-02-23T21:30:29.696Z,17.00
2019-02-23T21:32:59.131Z,17.30
2019-02-23T21:35:27.944Z,16.17
2019-02-23T21:37:57.006Z,12.80
2019-02-23T21:40:25.907Z,16.80
2019-02-23T21:42:55.328Z,17.90
2019-02-23T21:45:24.504Z,15.40
2019-02-23T21:47:53.416Z,14.70
2019-02-23T21:50:22.428Z,16.87
2019-02-23T21:52:51.918Z,15.33
2019-02-23T21:55:22.248Z,14.60
2019-02-23T21:57:51.742Z,16.80
2019-02-23T22:00:21.558Z,17.27
2019-02-23T22:02:52.200Z,16.00
2019-02-23T22:05:21.306Z,16.37
2019-02-23T22:07:50.606Z,16.37
2019-02-23T22:10:19.815Z,18.03
2019-02-23T22:12:49.210Z,18.97
2019-02-23T22:15:20.040Z,18.00
2019-02-23T22:17:52.196Z,14.83
2019-02-23T22:20:21.523Z,14.20
2019-02-23T22:22:51.929Z,19.20
2019-02-23T22:25:21.327Z,18.60
2019-02-23T22:27:51.551Z,21.20
2019-02-23T22:30:21.948Z,16.47
2019-02-23T22:32:53.502Z,13.77
2019-02-23T22:35:22.520Z,15.63
2019-02-23T22:37:51.768Z,13.60
2019-02-23T22:40:23.425Z,15.13
2019-02-23T22:42:52.247Z,14.87
2019-02-23T22:45:22.599Z,14.73
2019-02-23T22:47:54.560Z,16.40
2019-02-23T22:50:23.582Z,15.33
2019-02-23T22:52:52.777Z,16.23
2019-02-23T22:55:21.674Z,13.47
2019-02-23T22:57:51.988Z,14.93
2019-02-23T23:00:25.446Z,14.87
2019-02-23T23:02:54.483Z,13.70
2019-02-23T23:05:23.465Z,14.77
2019-02-23T23:07:52.359Z,16.43
2019-02-23T23:10:21.806Z,15.30
2019-02-23T23:12:51.232Z,12.73
2019-02-23T23:15:20.339Z,17.20
2019-02-23T23:17:49.634Z,14.47
2019-02-23T23:20:18.682Z,17.60
2019-02-23T23:22:47.748Z,16.97
2019-02-23T23:25:16.660Z,14.37
2019-02-23T23:27:49.371Z,18.30
2019-02-23T23:30:16.056Z,16.93
2019-02-23T23:32:44.901Z,13.03
2019-02-23T23:35:16.677Z,14.70
2019-02-23T23:37:45.648Z,17.53
2019-02-23T23:40:14.625Z,16.33
2019-02-23T23:42:43.475Z,13.87
2019-02-23T23:45:12.711Z,18.63
2019-02-23T23:47:41.662Z,15.67
2019-02-23T23:50:10.510Z,20.10
2019-02-23T23:52:39.515Z,19.27
2019-02-23T23:55:08.320Z,14.93
2019-02-23T23:57:37.412Z,15.43
